Time;durP1;ratioP1;P1;durP2;ratioP2;P2;SDS_P1;SDS_P2;PMS_P1;PMS_P2;Temp;Humidity;BMP_temperature;BMP_pressure;BME280_temperature;BME280_humidity;BME280_pressure;Samples;Min_cycle;Max_cycle;Signal;HPM_P1;HPM_P2
2021/12/20 00:00:47;;;;;;;40.58;23.92;;;;;;;;;;2073412;28;20478;-92
2021/12/20 00:01:49;;;;;;;34.58;21.35;;;;;;;;;;2081587;28;20045;-92
2021/12/20 00:02:51;;;;;;;34.05;21.17;;;;;;;;;;2080795;28;20071;-93
2021/12/20 00:03:51;;;;;;;41.35;22.55;;;;;;;;;;2073514;28;20273;-92
2021/12/20 00:04:52;;;;;;;42.03;22.75;;;;;;;;;;2073335;28;20022;-93
2021/12/20 00:05:53;;;;;;;32.45;21.42;;;;;;;;;;2073447;28;20537;-92
2021/12/20 00:06:53;;;;;;;35.38;21.23;;;;;;;;;;2073343;28;20269;-91
2021/12/20 00:07:54;;;;;;;32.15;20.70;;;;;;;;;;2089564;28;20078;-91
2021/12/20 00:08:54;;;;;;;35.08;22.80;;;;;;;;;;2081353;28;20018;-92
2021/12/20 00:09:54;;;;;;;31.05;20.48;;;;;;;;;;2079616;28;20032;-93
2021/12/20 00:10:55;;;;;;;27.05;19.50;;;;;;;;;;2089671;28;20025;-91
2021/12/20 00:11:55;;;;;;;29.55;19.35;;;;;;;;;;2081492;28;20105;-91
2021/12/20 00:12:56;;;;;;;30.80;20.02;;;;;;;;;;2081406;28;20457;-92
2021/12/20 00:13:56;;;;;;;35.65;20.30;;;;;;;;;;2081422;28;20021;-92
2021/12/20 00:14:56;;;;;;;31.77;20.67;;;;;;;;;;2090194;28;20033;-93
2021/12/20 00:15:57;;;;;;;25.60;17.85;;;;;;;;;;2081901;28;20025;-92
2021/12/20 00:16:57;;;;;;;31.75;19.05;;;;;;;;;;2079976;28;20061;-92
2021/12/20 00:17:58;;;;;;;30.33;19.67;;;;;;;;;;2081592;28;20580;-93
2021/12/20 00:18:58;;;;;;;33.08;20.08;;;;;;;;;;2082557;28;20032;-91
2021/12/20 00:19:58;;;;;;;30.20;20.30;;;;;;;;;;2090999;28;20021;-93
2021/12/20 00:20:59;;;;;;;31.45;19.85;;;;;;;;;;2082578;28;20029;-93
2021/12/20 00:21:59;;;;;;;39.78;19.58;;;;;;;;;;2082421;28;20021;-94
2021/12/20 00:22:59;;;;;;;30.75;19.85;;;;;;;;;;2081444;28;20115;-91
2021/12/20 00:24:00;;;;;;;35.70;20.58;;;;;;;;;;2082705;28;20018;-92
2021/12/20 00:25:00;;;;;;;34.38;19.67;;;;;;;;;;2091460;28;20021;-92
2021/12/20 00:26:00;;;;;;;32.38;20.67;;;;;;;;;;2083782;28;20026;-93
2021/12/20 00:27:05;;;;;;;31.20;19.48;;;;;;;;;;2083334;28;20037;-92
2021/12/20 00:28:05;;;;;;;32.58;19.45;;;;;;;;;;2083297;28;20021;-92
2021/12/20 00:29:05;;;;;;;44.85;21.50;;;;;;;;;;2082760;28;20287;-92
2021/12/20 00:30:06;;;;;;;34.83;20.17;;;;;;;;;;2081097;28;20511;-91
2021/12/20 00:31:07;;;;;;;40.38;19.73;;;;;;;;;;2081444;28;20419;-92
2021/12/20 00:32:07;;;;;;;36.83;20.50;;;;;;;;;;2082348;28;20396;-95
2021/12/20 00:33:07;;;;;;;37.33;21.20;;;;;;;;;;2089700;28;20017;-93
2021/12/20 00:34:08;;;;;;;40.58;20.33;;;;;;;;;;2089750;28;20468;-93
2021/12/20 00:35:09;;;;;;;34.33;19.88;;;;;;;;;;2081579;28;20419;-91
2021/12/20 00:36:09;;;;;;;31.95;19.63;;;;;;;;;;2081425;28;20029;-91
2021/12/20 00:41:06;;;;;;;51.47;20.52;;;;;;;;;;2098431;28;20746;-91
2021/12/20 00:42:07;;;;;;;34.08;19.35;;;;;;;;;;2089575;28;20029;-93
2021/12/20 00:43:07;;;;;;;33.70;19.90;;;;;;;;;;2080135;28;20040;-95
2021/12/20 00:44:07;;;;;;;33.58;20.65;;;;;;;;;;2089519;28;20035;-93
2021/12/20 00:45:08;;;;;;;34.33;19.00;;;;;;;;;;2081315;28;20113;-93
2021/12/20 00:46:09;;;;;;;35.63;22.27;;;;;;;;;;2081127;28;20036;-94
2021/12/20 00:47:09;;;;;;;78.25;21.88;;;;;;;;;;2080943;28;20025;-93
2021/12/20 00:48:10;;;;;;;30.42;19.17;;;;;;;;;;2081276;28;20551;-93
2021/12/20 00:49:10;;;;;;;30.58;18.65;;;;;;;;;;2089327;28;20530;-92
2021/12/20 00:50:11;;;;;;;46.60;20.13;;;;;;;;;;2080195;28;20032;-92
2021/12/20 00:51:12;;;;;;;40.95;20.67;;;;;;;;;;2081318;28;20017;-93
2021/12/20 00:52:12;;;;;;;37.22;20.42;;;;;;;;;;2081277;28;20264;-92
2021/12/20 00:53:13;;;;;;;31.45;21.23;;;;;;;;;;2081178;28;20432;-92
2021/12/20 00:54:13;;;;;;;27.60;19.67;;;;;;;;;;2081093;28;20461;-91
2021/12/20 00:55:18;;;;;;;32.38;20.67;;;;;;;;;;2081304;28;20017;-93
2021/12/20 00:56:18;;;;;;;31.48;19.45;;;;;;;;;;2080703;28;20448;-94
2021/12/20 00:57:19;;;;;;;34.13;22.42;;;;;;;;;;2081388;28;20017;-92
2021/12/20 00:58:19;;;;;;;32.00;20.65;;;;;;;;;;2080997;28;20029;-94
2021/12/20 00:59:19;;;;;;;34.00;21.02;;;;;;;;;;2081191;28;20058;-92
2021/12/20 01:00:22;;;;;;;47.00;21.13;;;;;;;;;;2081253;28;20051;-94
2021/12/20 01:01:22;;;;;;;37.72;18.25;;;;;;;;;;2089074;28;20432;-93
2021/12/20 01:02:23;;;;;;;31.35;20.58;;;;;;;;;;2081284;28;20264;-94
2021/12/20 01:03:23;;;;;;;35.55;21.15;;;;;;;;;;2080193;28;20021;-92
2021/12/20 01:04:24;;;;;;;28.80;18.88;;;;;;;;;;2089550;28;20024;-94
2021/12/20 01:05:25;;;;;;;31.83;20.48;;;;;;;;;;2089377;28;20104;-92
2021/12/20 01:06:25;;;;;;;53.05;19.70;;;;;;;;;;2081303;28;20021;-92
2021/12/20 01:07:25;;;;;;;38.22;20.33;;;;;;;;;;2082579;28;20489;-92
2021/12/20 01:08:29;;;;;;;31.50;18.55;;;;;;;;;;2082600;28;20071;-94
2021/12/20 01:09:30;;;;;;;25.75;17.98;;;;;;;;;;2083174;28;20033;-93
2021/12/20 01:10:30;;;;;;;25.85;19.00;;;;;;;;;;2081555;28;20268;-92
2021/12/20 01:11:37;;;;;;;43.15;19.77;;;;;;;;;;2090839;28;20021;-91
2021/12/20 01:12:46;;;;;;;29.85;18.92;;;;;;;;;;2091056;28;20456;-93
2021/12/20 01:13:47;;;;;;;50.40;19.70;;;;;;;;;;2083797;28;20108;-91
2021/12/20 01:14:47;;;;;;;30.67;17.60;;;;;;;;;;2082610;28;20014;-93
2021/12/20 01:15:51;;;;;;;28.63;18.83;;;;;;;;;;2082539;28;20022;-92
2021/12/20 01:16:53;;;;;;;30.08;18.77;;;;;;;;;;2081796;28;20021;-92
2021/12/20 01:17:54;;;;;;;26.58;18.13;;;;;;;;;;2082704;28;20068;-92
2021/12/20 01:18:54;;;;;;;38.78;20.15;;;;;;;;;;2082447;28;20075;-91
2021/12/20 01:19:54;;;;;;;38.95;20.25;;;;;;;;;;2090830;28;20029;-91
2021/12/20 01:20:55;;;;;;;31.40;20.38;;;;;;;;;;2082485;28;20071;-91
2021/12/20 01:21:55;;;;;;;37.58;17.92;;;;;;;;;;2082541;28;20472;-93
2021/12/20 01:22:56;;;;;;;35.53;19.90;;;;;;;;;;2080914;28;20030;-92
2021/12/20 01:23:56;;;;;;;30.23;19.60;;;;;;;;;;2082233;28;20021;-91
2021/12/20 01:24:57;;;;;;;29.60;19.23;;;;;;;;;;2090852;28;20103;-93
2021/12/20 01:25:57;;;;;;;35.10;18.50;;;;;;;;;;2082658;28;20032;-92
2021/12/20 01:26:57;;;;;;;36.17;20.05;;;;;;;;;;2082548;28;20366;-91
2021/12/20 01:27:58;;;;;;;36.75;18.55;;;;;;;;;;2082445;28;20036;-91
2021/12/20 01:28:58;;;;;;;32.28;19.13;;;;;;;;;;2082529;28;20021;-92
2021/12/20 01:29:59;;;;;;;33.90;18.85;;;;;;;;;;2081442;28;20092;-91
2021/12/20 01:30:59;;;;;;;31.88;18.75;;;;;;;;;;2082325;28;20022;-92
2021/12/20 01:31:59;;;;;;;27.60;17.40;;;;;;;;;;2090812;28;20021;-92
2021/12/20 01:33:00;;;;;;;34.72;18.38;;;;;;;;;;2082449;28;20018;-91
2021/12/20 01:34:00;;;;;;;26.60;17.98;;;;;;;;;;2082494;28;20028;-93
2021/12/20 01:35:01;;;;;;;48.58;19.17;;;;;;;;;;2090366;28;20108;-94
2021/12/20 01:36:01;;;;;;;32.83;19.13;;;;;;;;;;2082512;28;20025;-93
2021/12/20 01:37:01;;;;;;;30.55;18.38;;;;;;;;;;2081211;28;20028;-92
2021/12/20 01:38:02;;;;;;;26.50;18.33;;;;;;;;;;2090739;28;20025;-91
2021/12/20 01:39:03;;;;;;;36.20;18.70;;;;;;;;;;2090642;28;20096;-91
2021/12/20 01:40:04;;;;;;;53.40;19.10;;;;;;;;;;2082880;28;20164;-92
2021/12/20 01:41:06;;;;;;;31.67;18.83;;;;;;;;;;2082348;28;20284;-92
2021/12/20 01:42:07;;;;;;;35.28;19.50;;;;;;;;;;2082570;28;20105;-93
2021/12/20 01:43:10;;;;;;;30.58;18.40;;;;;;;;;;2081244;28;20275;-91
2021/12/20 01:44:11;;;;;;;32.45;17.45;;;;;;;;;;2082755;28;20020;-92
2021/12/20 01:45:13;;;;;;;28.05;18.48;;;;;;;;;;2082406;28;20268;-92
2021/12/20 01:46:14;;;;;;;38.00;19.00;;;;;;;;;;2082204;28;20021;-92
2021/12/20 01:47:14;;;;;;;26.73;18.55;;;;;;;;;;2082200;28;20273;-93
2021/12/20 01:48:18;;;;;;;26.70;18.70;;;;;;;;;;2082457;28;20041;-92
2021/12/20 01:49:19;;;;;;;27.90;18.83;;;;;;;;;;2082670;28;20026;-91
2021/12/20 01:50:41;;;;;;;27.23;17.65;;;;;;;;;;2081253;28;20087;-92
2021/12/20 01:52:55;;;;;;;29.67;18.65;;;;;;;;;;2099156;28;20043;-93
2021/12/20 01:53:57;;;;;;;34.10;16.65;;;;;;;;;;2090716;28;20274;-92
2021/12/20 01:54:57;;;;;;;33.17;18.50;;;;;;;;;;2082523;28;20028;-92
2021/12/20 01:55:58;;;;;;;40.33;18.98;;;;;;;;;;2082382;28;20248;-93
2021/12/20 01:56:58;;;;;;;39.67;18.35;;;;;;;;;;2089337;28;20059;-92
2021/12/20 01:57:59;;;;;;;40.00;19.48;;;;;;;;;;2090693;28;20083;-93
2021/12/20 01:59:03;;;;;;;30.70;17.70;;;;;;;;;;2090677;28;20084;-91
2021/12/20 02:00:08;;;;;;;31.13;17.35;;;;;;;;;;2082340;28;20029;-91
2021/12/20 02:02:09;;;;;;;28.50;18.48;;;;;;;;;;2090757;28;20271;-92
2021/12/20 02:03:10;;;;;;;32.25;17.85;;;;;;;;;;2089196;28;20029;-92
2021/12/20 02:04:12;;;;;;;28.48;19.25;;;;;;;;;;2082347;28;20025;-92
2021/12/20 02:05:21;;;;;;;27.20;18.27;;;;;;;;;;2090350;28;20024;-93
2021/12/20 02:07:50;;;;;;;27.63;16.85;;;;;;;;;;2087232;28;20268;-93
2021/12/20 02:08:50;;;;;;;30.55;19.58;;;;;;;;;;2082011;28;20639;-90
2021/12/20 02:09:51;;;;;;;26.70;17.85;;;;;;;;;;2073037;28;20344;-92
2021/12/20 02:10:56;;;;;;;29.67;18.30;;;;;;;;;;2074180;28;20084;-92
2021/12/20 02:11:56;;;;;;;36.67;18.63;;;;;;;;;;2074291;28;20040;-90
2021/12/20 02:12:56;;;;;;;34.55;19.33;;;;;;;;;;2082348;28;20279;-90
2021/12/20 02:13:57;;;;;;;43.58;19.38;;;;;;;;;;2082114;28;20025;-92
2021/12/20 02:14:57;;;;;;;31.27;19.70;;;;;;;;;;2073944;28;20025;-92
2021/12/20 02:15:58;;;;;;;34.45;18.70;;;;;;;;;;2073641;28;20041;-93
2021/12/20 02:16:58;;;;;;;29.60;17.70;;;;;;;;;;2073043;28;20026;-91
2021/12/20 02:17:59;;;;;;;31.73;19.48;;;;;;;;;;2073732;28;20809;-92
2021/12/20 02:19:03;;;;;;;27.70;19.23;;;;;;;;;;2073193;28;20462;-91
2021/12/20 02:20:04;;;;;;;30.40;18.40;;;;;;;;;;2082116;28;20029;-92
2021/12/20 02:21:04;;;;;;;36.55;18.80;;;;;;;;;;2082153;28;20307;-91
2021/12/20 02:22:05;;;;;;;29.80;17.77;;;;;;;;;;2082201;28;20037;-92
2021/12/20 02:23:06;;;;;;;29.60;18.35;;;;;;;;;;2072250;28;20025;-92
2021/12/20 02:24:07;;;;;;;28.92;17.65;;;;;;;;;;2081908;28;20108;-92
2021/12/20 02:25:07;;;;;;;32.28;18.52;;;;;;;;;;2082295;28;20844;-92
2021/12/20 02:26:11;;;;;;;31.88;18.70;;;;;;;;;;2082106;28;20061;-91
2021/12/20 02:27:11;;;;;;;31.50;20.42;;;;;;;;;;2074201;28;20014;-90
2021/12/20 02:28:16;;;;;;;36.83;18.13;;;;;;;;;;2073913;28;20268;-91
2021/12/20 02:29:26;;;;;;;27.20;18.60;;;;;;;;;;2074335;28;20033;-90
2021/12/20 02:37:56;;;;;;;;;;;;;;;;;;2090938;28;20287;-90
2021/12/20 02:38:56;;;;;;;26.67;16.90;;;;;;;;;;2081999;28;19912;-91
2021/12/20 02:39:56;;;;;;;31.73;19.60;;;;;;;;;;2073834;28;20055;-91
2021/12/20 02:41:04;;;;;;;32.75;18.52;;;;;;;;;;2081911;28;20216;-92
2021/12/20 02:42:04;;;;;;;33.00;19.35;;;;;;;;;;2082014;28;20049;-93
2021/12/20 02:43:05;;;;;;;33.30;18.50;;;;;;;;;;2072644;28;20280;-91
2021/12/20 02:44:11;;;;;;;72.72;24.10;;;;;;;;;;2073846;28;20042;-92
2021/12/20 02:45:14;;;;;;;32.33;19.73;;;;;;;;;;2074086;28;20056;-91
2021/12/20 02:46:27;;;;;;;30.35;19.25;;;;;;;;;;2074026;28;20333;-92
2021/12/20 02:47:29;;;;;;;30.30;19.50;;;;;;;;;;2083867;28;20263;-90
2021/12/20 02:48:29;;;;;;;29.70;19.50;;;;;;;;;;2081778;28;20264;-92
2021/12/20 02:49:29;;;;;;;72.13;21.20;;;;;;;;;;2073595;28;20353;-92
2021/12/20 02:50:30;;;;;;;33.30;17.90;;;;;;;;;;2072644;28;20025;-92
2021/12/20 02:51:30;;;;;;;37.08;19.58;;;;;;;;;;2073779;28;20064;-91
2021/12/20 02:52:31;;;;;;;31.17;19.20;;;;;;;;;;2073303;28;20028;-92
2021/12/20 02:53:31;;;;;;;27.98;19.80;;;;;;;;;;2073645;28;20045;-91
2021/12/20 02:54:31;;;;;;;28.35;18.55;;;;;;;;;;2073685;28;20133;-91
2021/12/20 02:55:32;;;;;;;35.45;18.75;;;;;;;;;;2073635;28;20026;-93
2021/12/20 02:56:33;;;;;;;35.05;20.27;;;;;;;;;;2072711;28;20476;-90
2021/12/20 02:57:34;;;;;;;28.38;19.38;;;;;;;;;;2073629;28;20029;-92
2021/12/20 02:58:34;;;;;;;34.00;19.05;;;;;;;;;;2073847;28;20564;-90
2021/12/20 02:59:35;;;;;;;32.70;19.65;;;;;;;;;;2073377;28;20269;-91
2021/12/20 03:00:35;;;;;;;28.40;18.58;;;;;;;;;;2073285;28;20026;-92
2021/12/20 03:01:36;;;;;;;26.60;18.48;;;;;;;;;;2073237;28;20053;-91
2021/12/20 03:02:37;;;;;;;31.05;18.65;;;;;;;;;;2073704;28;20033;-93
2021/12/20 03:03:37;;;;;;;32.03;20.58;;;;;;;;;;2080712;28;20029;-91
2021/12/20 03:04:38;;;;;;;27.75;17.48;;;;;;;;;;2081726;28;20025;-91
2021/12/20 03:05:38;;;;;;;34.58;18.58;;;;;;;;;;2073585;28;20377;-90
2021/12/20 03:06:41;;;;;;;30.35;20.15;;;;;;;;;;2080893;28;20025;-90
2021/12/20 03:07:48;;;;;;;33.83;21.25;;;;;;;;;;2086052;28;20019;-90
2021/12/20 03:08:51;;;;;;;28.10;19.20;;;;;;;;;;2082210;28;20351;-91
2021/12/20 03:09:56;;;;;;;30.40;18.83;;;;;;;;;;2080927;28;20270;-90
2021/12/20 03:10:56;;;;;;;28.00;18.38;;;;;;;;;;2090100;28;20754;-92
2021/12/20 03:11:59;;;;;;;32.13;19.25;;;;;;;;;;2081792;28;20272;-91
2021/12/20 03:12:59;;;;;;;31.23;18.80;;;;;;;;;;2081673;28;20022;-91
2021/12/20 03:14:25;;;;;;;32.20;19.67;;;;;;;;;;2081742;28;20400;-91
2021/12/20 03:15:27;;;;;;;34.58;19.17;;;;;;;;;;2089928;28;20053;-92
2021/12/20 03:16:27;;;;;;;31.45;19.52;;;;;;;;;;2080747;28;20775;-92
2021/12/20 03:17:28;;;;;;;35.38;22.00;;;;;;;;;;2081871;28;20256;-92
2021/12/20 03:18:28;;;;;;;36.30;20.27;;;;;;;;;;2089798;28;20033;-91
2021/12/20 03:19:29;;;;;;;30.58;20.08;;;;;;;;;;2081691;28;20086;-92
2021/12/20 03:20:29;;;;;;;28.88;19.95;;;;;;;;;;2081659;28;20022;-90
2021/12/20 03:21:30;;;;;;;31.67;20.80;;;;;;;;;;2081601;28;20036;-92
2021/12/20 03:22:30;;;;;;;27.20;20.52;;;;;;;;;;2081234;28;20457;-90
2021/12/20 03:23:30;;;;;;;30.10;19.15;;;;;;;;;;2080506;28;20397;-91
2021/12/20 03:24:31;;;;;;;28.35;19.85;;;;;;;;;;2089926;28;20017;-91
2021/12/20 03:25:31;;;;;;;31.67;19.50;;;;;;;;;;2081412;28;20021;-91
2021/12/20 03:26:32;;;;;;;31.42;18.88;;;;;;;;;;2081697;28;20025;-91
2021/12/20 03:27:32;;;;;;;27.75;19.55;;;;;;;;;;2081614;28;20060;-90
2021/12/20 03:28:33;;;;;;;28.50;20.10;;;;;;;;;;2089696;28;20033;-90
2021/12/20 03:29:33;;;;;;;28.77;20.10;;;;;;;;;;2089200;28;20055;-89
2021/12/20 03:30:33;;;;;;;33.85;20.08;;;;;;;;;;2080390;28;20029;-90
2021/12/20 03:31:34;;;;;;;30.80;18.75;;;;;;;;;;2089850;28;20028;-90
2021/12/20 03:32:34;;;;;;;35.17;20.30;;;;;;;;;;2089744;28;20013;-90
2021/12/20 03:33:34;;;;;;;32.88;19.92;;;;;;;;;;2081587;28;20109;-93
2021/12/20 03:34:35;;;;;;;27.20;19.73;;;;;;;;;;2089767;28;20349;-88
2021/12/20 03:35:35;;;;;;;31.75;20.48;;;;;;;;;;2081654;28;20040;-90
2021/12/20 03:36:35;;;;;;;31.73;20.80;;;;;;;;;;2079891;28;20374;-89
2021/12/20 03:37:36;;;;;;;34.17;19.17;;;;;;;;;;2089746;28;20024;-91
2021/12/20 03:38:36;;;;;;;28.10;19.40;;;;;;;;;;2089739;28;20076;-90
2021/12/20 03:39:36;;;;;;;29.73;19.65;;;;;;;;;;2081395;28;20036;-89
2021/12/20 03:40:37;;;;;;;29.90;21.08;;;;;;;;;;2089794;28;20048;-91
2021/12/20 03:41:38;;;;;;;27.40;18.63;;;;;;;;;;2081115;28;20029;-92
2021/12/20 03:42:42;;;;;;;34.20;20.73;;;;;;;;;;2081533;28;20021;-89
2021/12/20 03:43:42;;;;;;;28.45;18.67;;;;;;;;;;2080604;28;20036;-91
2021/12/20 03:44:44;;;;;;;32.15;18.75;;;;;;;;;;2080839;28;20699;-93
2021/12/20 03:45:49;;;;;;;29.35;19.50;;;;;;;;;;2081699;28;20025;-92
2021/12/20 03:46:49;;;;;;;35.38;21.33;;;;;;;;;;2082048;28;20259;-90
2021/12/20 03:47:50;;;;;;;35.35;20.83;;;;;;;;;;2081482;28;20266;-91
2021/12/20 03:48:50;;;;;;;32.42;19.25;;;;;;;;;;2081082;28;20476;-90
2021/12/20 03:49:50;;;;;;;32.45;20.05;;;;;;;;;;2088060;28;20499;-92
2021/12/20 03:50:51;;;;;;;28.55;21.05;;;;;;;;;;2081333;28;20463;-93
2021/12/20 03:51:51;;;;;;;29.30;20.67;;;;;;;;;;2072954;28;20481;-91
2021/12/20 03:52:52;;;;;;;33.30;20.23;;;;;;;;;;2081369;28;20030;-90
2021/12/20 03:53:53;;;;;;;28.75;20.50;;;;;;;;;;2081480;28;20397;-91
2021/12/20 03:54:53;;;;;;;34.58;21.95;;;;;;;;;;2081596;28;20109;-93
2021/12/20 03:55:53;;;;;;;33.42;20.73;;;;;;;;;;2081557;28;20025;-91
2021/12/20 03:56:54;;;;;;;28.33;20.27;;;;;;;;;;2080343;28;20025;-91
2021/12/20 03:57:54;;;;;;;33.38;21.73;;;;;;;;;;2081335;28;20025;-93
2021/12/20 03:58:54;;;;;;;31.83;21.60;;;;;;;;;;2081102;28;20044;-91
2021/12/20 03:59:55;;;;;;;30.40;20.13;;;;;;;;;;2081406;28;20120;-91
2021/12/20 04:00:56;;;;;;;35.20;21.25;;;;;;;;;;2081403;28;20095;-89
2021/12/20 04:01:57;;;;;;;25.88;18.45;;;;;;;;;;2081247;28;20461;-91
2021/12/20 04:02:57;;;;;;;27.23;19.45;;;;;;;;;;2080288;28;20271;-90
2021/12/20 04:04:00;;;;;;;30.38;20.67;;;;;;;;;;2089957;28;20017;-91
2021/12/20 04:05:00;;;;;;;33.22;21.17;;;;;;;;;;2089725;28;20025;-90
2021/12/20 04:06:05;;;;;;;32.97;20.83;;;;;;;;;;2081350;28;20346;-92
2021/12/20 04:07:05;;;;;;;30.42;19.70;;;;;;;;;;2081849;28;20067;-91
2021/12/20 04:08:06;;;;;;;28.75;20.05;;;;;;;;;;2081779;28;20267;-89
2021/12/20 04:09:06;;;;;;;30.88;20.50;;;;;;;;;;2081462;28;20087;-90
2021/12/20 04:10:07;;;;;;;30.48;21.52;;;;;;;;;;2080281;28;20029;-90
2021/12/20 04:11:08;;;;;;;30.05;20.25;;;;;;;;;;2081444;28;20397;-89
2021/12/20 04:12:09;;;;;;;31.88;22.23;;;;;;;;;;2073325;28;20319;-91
2021/12/20 04:13:09;;;;;;;33.55;20.52;;;;;;;;;;2072839;28;20029;-92
2021/12/20 04:14:10;;;;;;;33.65;22.13;;;;;;;;;;2080888;28;20041;-90
2021/12/20 04:15:10;;;;;;;32.15;20.70;;;;;;;;;;2081159;28;20025;-90
2021/12/20 04:16:10;;;;;;;38.55;23.05;;;;;;;;;;2073308;28;20037;-91
2021/12/20 04:17:11;;;;;;;40.22;20.92;;;;;;;;;;2072024;28;20541;-91
2021/12/20 04:18:11;;;;;;;29.33;20.75;;;;;;;;;;2073171;28;20062;-91
2021/12/20 04:19:11;;;;;;;30.52;20.52;;;;;;;;;;2073081;28;20022;-92
2021/12/20 04:20:12;;;;;;;30.52;20.17;;;;;;;;;;2073247;28;20028;-88
2021/12/20 04:21:13;;;;;;;29.85;20.00;;;;;;;;;;2072923;28;20034;-90
2021/12/20 04:22:15;;;;;;;34.78;23.40;;;;;;;;;;2073323;28;20412;-89
2021/12/20 04:23:16;;;;;;;31.83;22.80;;;;;;;;;;2072314;28;20026;-93
2021/12/20 04:24:16;;;;;;;29.70;20.23;;;;;;;;;;2073285;28;20272;-90
2021/12/20 04:25:17;;;;;;;32.42;20.98;;;;;;;;;;2073368;28;20026;-90
2021/12/20 04:26:18;;;;;;;33.42;22.80;;;;;;;;;;2081047;28;20071;-90
2021/12/20 04:27:18;;;;;;;33.55;21.60;;;;;;;;;;2081346;28;20022;-91
2021/12/20 04:28:19;;;;;;;32.78;22.50;;;;;;;;;;2081084;28;20040;-89
2021/12/20 04:29:19;;;;;;;29.13;20.35;;;;;;;;;;2081522;28;20068;-90
2021/12/20 04:30:20;;;;;;;31.00;21.88;;;;;;;;;;2088946;28;20019;-89
2021/12/20 04:31:20;;;;;;;31.88;21.20;;;;;;;;;;2081123;28;20022;-91
2021/12/20 04:32:21;;;;;;;33.00;21.30;;;;;;;;;;2073093;28;20489;-91
2021/12/20 04:33:21;;;;;;;35.42;23.02;;;;;;;;;;2072929;28;20476;-91
2021/12/20 04:34:21;;;;;;;32.97;22.05;;;;;;;;;;2073179;28;20553;-90
2021/12/20 04:35:22;;;;;;;32.40;20.65;;;;;;;;;;2073076;28;20018;-90
2021/12/20 04:36:22;;;;;;;30.90;21.48;;;;;;;;;;2071551;28;20064;-89
2021/12/20 04:37:22;;;;;;;33.58;21.15;;;;;;;;;;2081526;28;20017;-90
2021/12/20 04:38:25;;;;;;;33.55;21.23;;;;;;;;;;2081104;28;20022;-91
2021/12/20 04:39:29;;;;;;;32.10;22.23;;;;;;;;;;2073565;28;20038;-94
2021/12/20 04:40:30;;;;;;;34.45;21.95;;;;;;;;;;2073661;28;20281;-90
2021/12/20 04:41:30;;;;;;;31.13;23.40;;;;;;;;;;2073083;28;20297;-89
2021/12/20 04:42:31;;;;;;;33.90;21.95;;;;;;;;;;2074666;28;20470;-89
2021/12/20 04:43:31;;;;;;;30.88;21.20;;;;;;;;;;2081337;28;20507;-90
2021/12/20 04:44:31;;;;;;;34.83;21.30;;;;;;;;;;2074791;28;20026;-88
2021/12/20 04:45:33;;;;;;;33.05;22.58;;;;;;;;;;2074623;28;20025;-89
2021/12/20 04:46:33;;;;;;;30.10;21.20;;;;;;;;;;2074745;28;20389;-90
2021/12/20 04:47:33;;;;;;;34.55;21.83;;;;;;;;;;2082980;28;20299;-89
2021/12/20 04:48:34;;;;;;;32.15;22.30;;;;;;;;;;2082822;28;20037;-89
2021/12/20 04:49:34;;;;;;;36.15;21.33;;;;;;;;;;2074640;28;20034;-93
2021/12/20 04:50:35;;;;;;;32.25;21.23;;;;;;;;;;2072729;28;20029;-89
2021/12/20 04:51:35;;;;;;;32.22;20.77;;;;;;;;;;2082904;28;20028;-91
2021/12/20 04:52:36;;;;;;;31.92;21.08;;;;;;;;;;2082736;28;20018;-89
2021/12/20 04:53:37;;;;;;;35.50;20.77;;;;;;;;;;2082789;28;20017;-94
2021/12/20 04:54:37;;;;;;;32.50;20.63;;;;;;;;;;2082376;28;20489;-90
2021/12/20 04:55:37;;;;;;;31.73;20.45;;;;;;;;;;2074629;28;20025;-89
2021/12/20 04:56:38;;;;;;;30.00;19.88;;;;;;;;;;2073284;28;20038;-92
2021/12/20 04:57:39;;;;;;;36.17;21.45;;;;;;;;;;2074584;28;20025;-94
2021/12/20 04:58:39;;;;;;;37.65;21.20;;;;;;;;;;2074373;28;20040;-90
2021/12/20 04:59:39;;;;;;;30.45;21.90;;;;;;;;;;2074273;28;20661;-89
2021/12/20 05:00:40;;;;;;;32.63;20.80;;;;;;;;;;2082878;28;20505;-89
2021/12/20 05:01:41;;;;;;;34.13;21.25;;;;;;;;;;2082781;28;20037;-90
2021/12/20 05:02:41;;;;;;;33.67;21.40;;;;;;;;;;2074373;28;20045;-89
2021/12/20 05:03:41;;;;;;;31.30;21.55;;;;;;;;;;2073210;28;20022;-90
2021/12/20 05:04:42;;;;;;;29.98;20.63;;;;;;;;;;2082411;28;20018;-90
2021/12/20 05:05:43;;;;;;;29.83;21.38;;;;;;;;;;2074231;28;20060;-89
2021/12/20 05:06:43;;;;;;;33.92;22.55;;;;;;;;;;2082815;28;20501;-91
2021/12/20 05:07:45;;;;;;;32.60;20.42;;;;;;;;;;2087303;28;20066;-91
2021/12/20 05:08:48;;;;;;;30.85;21.08;;;;;;;;;;2090774;28;20030;-90
2021/12/20 05:09:49;;;;;;;30.65;21.08;;;;;;;;;;2081696;28;20370;-90
2021/12/20 05:10:49;;;;;;;35.55;21.60;;;;;;;;;;2082705;28;20684;-91
2021/12/20 05:11:58;;;;;;;33.33;20.73;;;;;;;;;;2082635;28;20021;-90
2021/12/20 05:12:59;;;;;;;30.90;21.58;;;;;;;;;;2083328;28;20146;-90
2021/12/20 05:14:00;;;;;;;28.13;20.95;;;;;;;;;;2082812;28;20268;-91
2021/12/20 05:15:00;;;;;;;30.50;21.05;;;;;;;;;;2082454;28;20272;-91
2021/12/20 05:16:01;;;;;;;29.63;19.90;;;;;;;;;;2082688;28;20024;-90
2021/12/20 05:17:01;;;;;;;32.25;21.35;;;;;;;;;;2081520;28;20021;-90
2021/12/20 05:18:02;;;;;;;30.48;19.83;;;;;;;;;;2090734;28;20075;-89
2021/12/20 05:19:02;;;;;;;31.05;21.27;;;;;;;;;;2082493;28;20033;-90
2021/12/20 05:20:03;;;;;;;32.63;22.10;;;;;;;;;;2082362;28;20029;-90
2021/12/20 05:21:04;;;;;;;32.85;21.95;;;;;;;;;;2082114;28;20033;-91
2021/12/20 05:22:05;;;;;;;34.70;20.67;;;;;;;;;;2082665;28;20791;-90
2021/12/20 05:23:07;;;;;;;29.23;21.05;;;;;;;;;;2089592;28;20025;-89
2021/12/20 05:24:08;;;;;;;31.85;21.50;;;;;;;;;;2082883;28;20431;-89
2021/12/20 05:25:08;;;;;;;29.55;21.38;;;;;;;;;;2082637;28;20265;-89
2021/12/20 05:26:09;;;;;;;31.15;22.83;;;;;;;;;;2090996;28;20514;-90
2021/12/20 05:27:09;;;;;;;35.20;21.15;;;;;;;;;;2090628;28;20021;-90
2021/12/20 05:28:09;;;;;;;33.38;21.90;;;;;;;;;;2082371;28;20057;-89
2021/12/20 05:29:10;;;;;;;32.83;22.77;;;;;;;;;;2082519;28;20029;-90
2021/12/20 05:30:11;;;;;;;32.53;21.13;;;;;;;;;;2089651;28;20024;-93
2021/12/20 05:31:11;;;;;;;33.03;23.58;;;;;;;;;;2099642;28;20066;-90
2021/12/20 05:32:11;;;;;;;39.20;22.80;;;;;;;;;;2090895;28;20021;-90
2021/12/20 05:33:12;;;;;;;39.47;21.00;;;;;;;;;;2082603;28;20028;-92
2021/12/20 05:34:12;;;;;;;36.53;21.77;;;;;;;;;;2082530;28;20053;-91
2021/12/20 05:35:14;;;;;;;31.48;20.15;;;;;;;;;;2082254;28;20107;-93
2021/12/20 05:36:14;;;;;;;32.35;23.15;;;;;;;;;;2082583;28;20124;-89
2021/12/20 05:37:16;;;;;;;32.00;20.85;;;;;;;;;;2081073;28;20260;-89
2021/12/20 05:38:16;;;;;;;36.42;22.60;;;;;;;;;;2082411;28;20044;-91
2021/12/20 05:39:16;;;;;;;34.53;22.92;;;;;;;;;;2082301;28;20259;-92
2021/12/20 05:40:17;;;;;;;33.60;23.13;;;;;;;;;;2082480;28;20538;-92
2021/12/20 05:41:18;;;;;;;35.30;23.92;;;;;;;;;;2090652;28;20025;-90
2021/12/20 05:42:18;;;;;;;81.22;24.52;;;;;;;;;;2082163;28;20022;-90
2021/12/20 05:43:18;;;;;;;33.55;22.33;;;;;;;;;;2080972;28;20218;-91
2021/12/20 05:44:19;;;;;;;44.65;22.30;;;;;;;;;;2083190;28;20021;-90
2021/12/20 05:45:19;;;;;;;38.47;25.08;;;;;;;;;;2090639;28;20092;-91
2021/12/20 05:46:19;;;;;;;36.45;22.35;;;;;;;;;;2082428;28;20018;-91
2021/12/20 05:47:22;;;;;;;35.53;21.30;;;;;;;;;;2082250;28;20033;-92
2021/12/20 05:48:22;;;;;;;38.70;21.50;;;;;;;;;;2082580;28;20500;-90
2021/12/20 05:49:22;;;;;;;37.15;22.67;;;;;;;;;;2082324;28;20260;-91
2021/12/20 05:50:23;;;;;;;27.05;20.80;;;;;;;;;;2089211;28;20554;-90
2021/12/20 05:51:24;;;;;;;32.95;21.23;;;;;;;;;;2082024;28;20067;-90
2021/12/20 05:52:24;;;;;;;34.33;23.15;;;;;;;;;;2082388;28;20527;-91
2021/12/20 05:53:24;;;;;;;30.40;21.75;;;;;;;;;;2081368;28;20528;-93
2021/12/20 05:54:25;;;;;;;36.88;22.40;;;;;;;;;;2090462;28;20400;-90
2021/12/20 05:55:25;;;;;;;37.47;22.25;;;;;;;;;;2090535;28;20083;-89
2021/12/20 05:56:25;;;;;;;30.95;22.27;;;;;;;;;;2080988;28;20068;-92
2021/12/20 05:57:26;;;;;;;32.72;22.55;;;;;;;;;;2081901;28;20033;-89
2021/12/20 05:58:26;;;;;;;31.15;21.52;;;;;;;;;;2082538;28;20026;-90
2021/12/20 05:59:26;;;;;;;36.75;24.42;;;;;;;;;;2082005;28;20148;-89
2021/12/20 06:00:27;;;;;;;35.63;20.15;;;;;;;;;;2082283;28;20473;-89
2021/12/20 06:01:27;;;;;;;31.08;21.75;;;;;;;;;;2082143;28;20068;-91
2021/12/20 06:02:27;;;;;;;37.55;20.70;;;;;;;;;;2082359;28;20029;-89
2021/12/20 06:03:28;;;;;;;29.05;20.85;;;;;;;;;;2080673;28;20025;-89
2021/12/20 06:04:28;;;;;;;36.33;20.95;;;;;;;;;;2082112;28;20611;-90
2021/12/20 06:05:29;;;;;;;29.90;20.25;;;;;;;;;;2090522;28;20025;-90
2021/12/20 06:06:31;;;;;;;33.25;20.55;;;;;;;;;;2090419;28;20059;-90
2021/12/20 06:07:32;;;;;;;40.28;21.67;;;;;;;;;;2079327;28;20112;-91
2021/12/20 06:08:32;;;;;;;30.98;20.73;;;;;;;;;;2065927;28;20669;-89
2021/12/20 06:09:32;;;;;;;30.75;20.20;;;;;;;;;;2074167;28;20026;-89
2021/12/20 06:10:33;;;;;;;30.40;21.42;;;;;;;;;;2072811;28;20076;-90
2021/12/20 06:11:33;;;;;;;31.35;20.73;;;;;;;;;;2065985;28;20113;-92